createdAt,value
2022-08-17T00:02:25.171Z,40.51
2022-08-17T00:07:28.664Z,40.24
2022-08-17T00:12:41.880Z,40.24
2022-08-17T00:17:48.167Z,40.42
2022-08-17T00:22:50.436Z,40.25
2022-08-17T00:27:52.478Z,40.17
2022-08-17T00:33:11.987Z,40.28
2022-08-17T00:38:18.277Z,40.35
2022-08-17T00:43:30.589Z,40.21
2022-08-17T00:48:33.515Z,40.49
2022-08-17T00:53:40.814Z,40.47
2022-08-17T00:58:43.068Z,40.60
2022-08-17T01:03:45.435Z,40.56
2022-08-17T01:08:47.308Z,40.34
2022-08-17T01:13:49.182Z,40.18
2022-08-17T01:18:54.520Z,40.30
2022-08-17T01:23:57.078Z,40.46
2022-08-17T01:29:00.257Z,40.48
2022-08-17T01:34:06.663Z,40.19
2022-08-17T01:39:17.160Z,40.38
2022-08-17T01:44:20.080Z,40.36
2022-08-17T01:49:22.066Z,40.55
2022-08-17T01:54:25.766Z,40.59
2022-08-17T01:59:27.983Z,40.46
2022-08-17T02:04:29.765Z,40.68
2022-08-17T02:09:31.649Z,40.32
2022-08-17T02:14:33.728Z,40.73
2022-08-17T02:19:35.773Z,40.51
2022-08-17T02:24:58.671Z,40.55
2022-08-17T02:30:01.347Z,40.77
2022-08-17T02:35:05.431Z,40.53
2022-08-17T02:40:08.022Z,40.49
2022-08-17T02:45:17.308Z,40.87
2022-08-17T02:50:22.136Z,40.60
2022-08-17T02:55:33.473Z,40.40
2022-08-17T03:00:38.483Z,40.38
2022-08-17T03:05:40.887Z,40.60
2022-08-17T03:10:44.539Z,40.61
2022-08-17T03:15:47.371Z,40.48
2022-08-17T03:20:49.358Z,40.24
2022-08-17T03:25:52.793Z,40.04
2022-08-17T03:30:55.545Z,40.26
2022-08-17T03:35:58.232Z,40.13
2022-08-17T03:41:00.412Z,39.96
2022-08-17T03:46:27.689Z,39.86
2022-08-17T03:51:49.923Z,40.16
2022-08-17T03:57:07.781Z,39.97
2022-08-17T04:02:31.198Z,39.70
2022-08-17T04:07:33.303Z,39.63
2022-08-17T04:12:50.803Z,39.68
2022-08-17T04:17:53.221Z,39.36
2022-08-17T04:23:04.366Z,39.69
2022-08-17T04:28:07.626Z,39.68
2022-08-17T04:33:24.566Z,39.82
2022-08-17T04:38:29.963Z,39.78
2022-08-17T04:43:33.205Z,39.30
2022-08-17T04:48:43.662Z,39.23
2022-08-17T04:53:54.037Z,39.32
2022-08-17T04:59:00.085Z,39.27
2022-08-17T05:04:34.633Z,39.00
2022-08-17T05:09:34.472Z,39.07
2022-08-17T05:14:39.326Z,38.99
2022-08-17T05:19:41.549Z,38.84
2022-08-17T05:24:54.004Z,38.53
2022-08-17T05:29:57.398Z,38.45
2022-08-17T05:35:00.827Z,38.46
2022-08-17T05:40:03.171Z,38.42
2022-08-17T05:45:05.858Z,38.30
2022-08-17T05:50:10.073Z,38.47
2022-08-17T05:55:30.642Z,38.26
2022-08-17T06:00:48.157Z,38.05
2022-08-17T06:06:09.289Z,38.30
2022-08-17T06:11:13.920Z,38.29
2022-08-17T06:16:34.383Z,38.37
2022-08-17T06:21:41.883Z,38.05
2022-08-17T06:26:45.564Z,37.97
2022-08-17T06:31:47.469Z,38.20
2022-08-17T06:37:13.650Z,38.13
2022-08-17T06:43:02.569Z,38.05
2022-08-17T06:48:39.241Z,38.35
2022-08-17T06:53:52.622Z,38.12
2022-08-17T06:58:57.442Z,38.16
2022-08-17T07:04:17.480Z,38.64
2022-08-17T07:09:28.694Z,39.61
2022-08-17T07:14:39.416Z,39.93
2022-08-17T07:19:45.785Z,39.84
2022-08-17T07:24:58.569Z,40.09
2022-08-17T07:30:44.620Z,39.82
2022-08-17T07:35:50.196Z,39.46
2022-08-17T07:40:58.228Z,39.32
2022-08-17T07:46:41.029Z,39.31
2022-08-17T07:51:42.740Z,39.24
2022-08-17T07:56:47.967Z,38.94
2022-08-17T08:01:58.473Z,39.85
2022-08-17T08:07:04.272Z,40.14
2022-08-17T08:12:28.929Z,40.59
2022-08-17T08:17:46.719Z,40.50
2022-08-17T08:23:01.514Z,40.22
2022-08-17T08:28:27.867Z,40.48
2022-08-17T08:33:55.147Z,41.10
2022-08-17T08:39:06.718Z,41.99
2022-08-17T08:44:19.448Z,42.23
2022-08-17T08:50:02.657Z,42.89
2022-08-17T08:55:10.722Z,42.95
2022-08-17T09:00:22.786Z,43.06
2022-08-17T09:05:45.811Z,43.03
2022-08-17T09:11:11.688Z,42.72
2022-08-17T09:16:23.356Z,42.69
2022-08-17T09:21:47.813Z,42.69
2022-08-17T09:27:08.479Z,42.41
2022-08-17T09:32:20.255Z,42.06
2022-08-17T09:37:39.490Z,42.76
2022-08-17T09:42:52.850Z,42.06
2022-08-17T09:48:32.373Z,42.58
2022-08-17T09:53:38.759Z,42.26
2022-08-17T09:58:50.694Z,41.99
2022-08-17T10:04:05.887Z,42.03
2022-08-17T10:09:22.179Z,42.22
2022-08-17T10:14:53.549Z,42.52
2022-08-17T10:20:19.315Z,42.63
2022-08-17T10:25:54.807Z,42.54
2022-08-17T10:31:34.152Z,42.72
2022-08-17T10:36:48.639Z,42.53
2022-08-17T10:41:56.807Z,42.67
2022-08-17T10:47:15.445Z,42.67
2022-08-17T10:52:20.228Z,42.73
2022-08-17T10:57:31.906Z,43.03
2022-08-17T11:02:54.303Z,43.40
2022-08-17T11:08:17.478Z,43.84
2022-08-17T11:13:40.831Z,44.24
2022-08-17T11:19:10.241Z,43.50
2022-08-17T11:24:16.811Z,43.61
2022-08-17T11:29:25.418Z,43.39
2022-08-17T11:34:30.174Z,43.55
2022-08-17T11:39:53.986Z,43.40
2022-08-17T11:45:33.291Z,43.74
2022-08-17T11:51:12.515Z,43.94
2022-08-17T11:56:41.303Z,43.52
2022-08-17T12:01:57.437Z,43.36
2022-08-17T12:07:19.784Z,43.38
2022-08-17T12:12:33.424Z,43.54
2022-08-17T12:17:40.418Z,43.80
2022-08-17T12:23:04.626Z,44.28
2022-08-17T12:28:36.931Z,44.89
2022-08-17T12:33:44.281Z,45.04
2022-08-17T12:39:14.513Z,45.31
2022-08-17T12:44:26.471Z,45.03
2022-08-17T12:49:30.334Z,45.19
2022-08-17T12:54:59.639Z,45.46
2022-08-17T13:00:10.827Z,44.96
2022-08-17T13:05:35.854Z,45.47
2022-08-17T13:10:38.509Z,45.49
2022-08-17T13:15:44.433Z,45.25
2022-08-17T13:20:55.780Z,45.89
2022-08-17T13:26:16.245Z,45.21
2022-08-17T13:31:30.450Z,46.66
2022-08-17T13:36:33.718Z,45.83
2022-08-17T13:41:37.441Z,45.91
2022-08-17T13:46:55.836Z,45.52
2022-08-17T13:51:58.840Z,45.55
2022-08-17T13:57:12.462Z,45.09
2022-08-17T14:02:17.144Z,44.86
2022-08-17T14:07:24.479Z,45.38
2022-08-17T14:12:29.595Z,44.60
2022-08-17T14:17:36.605Z,44.74
2022-08-17T14:22:45.302Z,44.76
2022-08-17T14:27:53.396Z,44.18
2022-08-17T14:32:56.718Z,43.62
2022-08-17T14:37:58.679Z,43.47
2022-08-17T14:43:01.428Z,43.96
2022-08-17T14:48:07.869Z,43.90
2022-08-17T14:53:13.827Z,44.57
2022-08-17T14:58:15.677Z,44.32
2022-08-17T15:03:18.979Z,44.62
2022-08-17T15:08:20.860Z,43.98
2022-08-17T15:13:25.218Z,43.80
2022-08-17T15:18:27.235Z,43.49
2022-08-17T15:23:29.085Z,43.76
2022-08-17T15:28:31.362Z,43.92
2022-08-17T15:33:33.536Z,42.99
2022-08-17T15:38:39.795Z,43.11
2022-08-17T15:43:43.043Z,43.07
2022-08-17T15:48:47.763Z,42.77
2022-08-17T15:54:18.870Z,42.26
2022-08-17T15:59:24.687Z,41.86
2022-08-17T16:04:30.723Z,41.68
2022-08-17T16:09:33.558Z,41.54
2022-08-17T16:14:36.459Z,41.70
2022-08-17T16:19:39.998Z,41.58
2022-08-17T16:24:57.328Z,41.68
2022-08-17T16:29:59.766Z,41.28
2022-08-17T16:35:06.339Z,41.47
2022-08-17T16:40:08.836Z,41.40
2022-08-17T16:45:18.608Z,41.12
2022-08-17T16:50:22.751Z,41.41
2022-08-17T16:55:24.629Z,41.33
2022-08-17T17:00:26.658Z,41.04
2022-08-17T17:06:08.486Z,40.64
2022-08-17T17:11:19.336Z,40.69
2022-08-17T17:16:29.825Z,40.87
2022-08-17T17:21:57.015Z,40.72
2022-08-17T17:27:19.444Z,40.82
2022-08-17T17:32:40.526Z,41.05
2022-08-17T17:37:45.299Z,41.11
2022-08-17T17:42:49.387Z,40.95
2022-08-17T17:47:51.471Z,41.08
2022-08-17T17:53:02.270Z,41.10
2022-08-17T17:58:30.070Z,41.36
2022-08-17T18:03:59.002Z,41.10
2022-08-17T18:09:23.294Z,41.35
2022-08-17T18:14:40.063Z,41.26
2022-08-17T18:19:42.128Z,41.26
2022-08-17T18:24:46.549Z,40.93
2022-08-17T18:29:50.701Z,41.09
2022-08-17T18:34:59.762Z,41.21
2022-08-17T18:40:16.926Z,41.57
2022-08-17T18:45:41.191Z,41.67
2022-08-17T18:50:43.237Z,41.60
2022-08-17T18:55:45.776Z,41.52
2022-08-17T19:00:51.327Z,41.56
2022-08-17T19:06:15.795Z,41.60
2022-08-17T19:11:30.596Z,41.63
2022-08-17T19:16:45.293Z,41.58
2022-08-17T19:21:56.296Z,41.55
2022-08-17T19:27:06.472Z,41.55
2022-08-17T19:32:10.733Z,41.66
2022-08-17T19:37:39.193Z,41.45
2022-08-17T19:43:03.110Z,41.55
2022-08-17T19:48:39.158Z,41.17
2022-08-17T19:54:07.963Z,41.22
2022-08-17T19:59:46.487Z,41.18
2022-08-17T20:04:50.846Z,41.28
2022-08-17T20:10:02.686Z,41.19
2022-08-17T20:15:24.785Z,41.21
2022-08-17T20:20:41.849Z,41.13
2022-08-17T20:26:17.175Z,41.18
2022-08-17T20:31:47.242Z,41.16
2022-08-17T20:36:58.025Z,41.38
2022-08-17T20:42:21.639Z,41.06
2022-08-17T20:47:35.530Z,41.19
2022-08-17T20:52:51.687Z,41.74
2022-08-17T20:57:53.758Z,41.54
2022-08-17T21:03:24.556Z,42.24
2022-08-17T21:08:53.843Z,42.31
2022-08-17T21:14:34.276Z,42.45
2022-08-17T21:19:54.179Z,42.58
2022-08-17T21:25:03.558Z,42.04
2022-08-17T21:30:10.267Z,41.62
2022-08-17T21:35:19.844Z,41.80
2022-08-17T21:40:31.284Z,41.61
2022-08-17T21:45:36.557Z,41.57
2022-08-17T21:50:41.798Z,41.48
2022-08-17T21:55:48.838Z,41.42
2022-08-17T22:01:18.682Z,41.62
2022-08-17T22:06:57.361Z,41.72
2022-08-17T22:12:11.817Z,41.21
2022-08-17T22:17:21.631Z,41.56
2022-08-17T22:22:28.429Z,41.44
2022-08-17T22:27:51.346Z,41.14
2022-08-17T22:32:53.861Z,41.37
2022-08-17T22:37:57.344Z,41.08
2022-08-17T22:43:03.753Z,41.07
2022-08-17T22:48:06.171Z,40.92
2022-08-17T22:53:38.127Z,41.09
2022-08-17T22:59:09.743Z,40.95
2022-08-17T23:04:13.203Z,40.64
2022-08-17T23:09:17.593Z,40.62
2022-08-17T23:14:20.827Z,40.90
2022-08-17T23:19:22.640Z,40.70
2022-08-17T23:24:38.114Z,40.53
2022-08-17T23:29:42.257Z,40.68
2022-08-17T23:34:48.474Z,40.66
2022-08-17T23:39:50.635Z,40.49
2022-08-17T23:44:52.854Z,40.46
2022-08-17T23:49:55.009Z,40.52
2022-08-17T23:54:59.851Z,40.43
